Time;durP1;ratioP1;P1;durP2;ratioP2;P2;SDS_P1;SDS_P2;PMS_P1;PMS_P2;Temp;Humidity;BMP_temperature;BMP_pressure;BME280_temperature;BME280_humidity;BME280_pressure;Samples;Min_cycle;Max_cycle;Signal;HPM_P1;HPM_P2
2023/08/29 00:00:33;;;;;;;5.28;2.60;;;;;;;24.15;40.62;93250.41;5025729;28;20022;-80
2023/08/29 00:03:03;;;;;;;9.05;2.85;;;;;;;24.11;40.82;93246.97;5024325;28;20028;-80
2023/08/29 00:05:29;;;;;;;10.18;2.72;;;;;;;24.08;40.94;93245.09;5025472;28;20018;-82
2023/08/29 00:07:54;;;;;;;5.30;2.83;;;;;;;24.03;40.83;93248.28;5025545;28;20028;-82
2023/08/29 00:10:20;;;;;;;8.80;2.55;;;;;;;23.94;42.31;93245.31;5025348;28;20311;-82
2023/08/29 00:12:45;;;;;;;12.02;3.15;;;;;;;23.86;42.54;93241.94;5025250;28;20205;-82
2023/08/29 00:15:11;;;;;;;7.15;2.17;;;;;;;23.85;42.61;93243.09;5025358;28;20017;-82
2023/08/29 00:17:36;;;;;;;7.68;3.38;;;;;;;23.83;42.59;93240.81;5024338;28;20141;-82
2023/08/29 00:20:02;;;;;;;7.13;2.88;;;;;;;23.77;42.87;93234.31;5025347;28;20339;-82
2023/08/29 00:22:28;;;;;;;6.05;2.97;;;;;;;23.78;43.13;93238.56;5025187;28;20017;-81
2023/08/29 00:24:54;;;;;;;9.55;3.17;;;;;;;23.80;43.15;93244.34;5025170;28;20022;-82
2023/08/29 00:27:20;;;;;;;5.50;3.28;;;;;;;23.81;42.88;93248.63;5024924;28;20212;-81
2023/08/29 00:29:45;;;;;;;7.47;3.05;;;;;;;23.77;43.11;93237.03;5024021;28;20097;-82
2023/08/29 00:32:11;;;;;;;7.78;3.10;;;;;;;23.72;43.06;93250.28;5025116;28;20072;-81
2023/08/29 00:34:37;;;;;;;5.78;2.67;;;;;;;23.63;43.65;93242.66;5023904;28;20026;-82
2023/08/29 00:37:03;;;;;;;7.38;3.33;;;;;;;23.63;43.67;93239.94;5024853;28;20070;-82
2023/08/29 00:39:28;;;;;;;7.45;2.60;;;;;;;23.60;43.56;93246.19;5023708;28;20029;-81
2023/08/29 00:41:54;;;;;;;9.95;3.10;;;;;;;23.51;43.86;93241.25;5024904;28;20037;-81
2023/08/29 00:44:20;;;;;;;6.47;2.65;;;;;;;23.46;44.03;93236.25;5023731;28;20339;-81
2023/08/29 00:46:46;;;;;;;6.03;2.72;;;;;;;23.46;44.14;93232.78;5024649;28;20034;-82
2023/08/29 00:49:15;;;;;;;7.45;2.47;;;;;;;23.40;44.14;93240.63;5023433;28;20029;-81
2023/08/29 00:51:41;;;;;;;6.35;3.17;;;;;;;23.41;44.39;93247.63;5024672;28;20225;-81
2023/08/29 00:54:07;;;;;;;4.47;2.45;;;;;;;23.36;44.54;93237.94;5023675;28;20048;-80
2023/08/29 00:56:33;;;;;;;8.55;3.10;;;;;;;23.31;45.14;93249.28;5024623;28;20029;-81
2023/08/29 00:59:00;;;;;;;5.30;2.88;;;;;;;23.29;45.10;93240.78;5024514;28;20026;-80
2023/08/29 01:01:26;;;;;;;6.20;2.60;;;;;;;23.29;44.94;93240.78;5024659;28;20022;-80
2023/08/29 01:03:51;;;;;;;5.63;2.72;;;;;;;23.23;44.90;93237.75;5024459;28;20018;-80
2023/08/29 01:06:17;;;;;;;4.80;3.05;;;;;;;23.20;45.15;93244.00;5023144;28;20025;-80
2023/08/29 01:08:44;;;;;;;5.05;2.63;;;;;;;23.15;45.26;93241.72;5024333;28;20216;-81
2023/08/29 01:11:28;;;;;;;6.72;3.40;;;;;;;23.09;45.63;93227.06;5023516;28;20018;-81
2023/08/29 01:14:19;;;;;;;6.00;3.00;;;;;;;23.01;45.84;93231.81;5024392;28;20026;-79
2023/08/29 01:16:51;;;;;;;8.52;2.80;;;;;;;22.96;46.35;93229.53;5024165;28;20026;-79
2023/08/29 01:19:20;;;;;;;8.40;3.35;;;;;;;22.92;46.16;93228.00;5024357;28;20068;-79
2023/08/29 01:21:56;;;;;;;5.90;2.45;;;;;;;22.88;46.41;93225.34;5024216;28;20042;-79
2023/08/29 01:24:32;;;;;;;12.05;2.80;;;;;;;22.87;46.86;93210.22;5023957;28;20029;-79
2023/08/29 01:26:59;;;;;;;6.25;2.70;;;;;;;22.86;46.65;93200.53;5024106;28;20056;-79
2023/08/29 01:29:26;;;;;;;5.18;2.83;;;;;;;22.84;46.70;93198.22;5023966;28;20030;-79
2023/08/29 01:31:51;;;;;;;5.40;2.78;;;;;;;22.80;46.45;93205.63;5023935;28;20101;-79
2023/08/29 01:34:18;;;;;;;7.32;2.70;;;;;;;22.76;46.90;93187.84;5023982;28;20025;-79
2023/08/29 01:36:44;;;;;;;8.13;2.80;;;;;;;22.73;47.22;93194.84;5022769;28;20100;-79
2023/08/29 01:39:09;;;;;;;4.18;2.63;;;;;;;22.68;47.42;93191.84;5023853;28;20052;-79
2023/08/29 01:41:35;;;;;;;7.25;3.30;;;;;;;22.65;47.30;93190.69;5023851;28;20021;-79
2023/08/29 01:44:02;;;;;;;6.88;2.90;;;;;;;22.60;47.51;93185.72;5022595;28;20018;-79
2023/08/29 01:46:28;;;;;;;5.50;2.70;;;;;;;22.51;47.84;93190.84;5022555;28;20056;-79
2023/08/29 01:52:17;;;;;;;7.18;2.80;;;;;;;22.30;48.38;93187.19;5021623;28;20064;-80
2023/08/29 01:54:43;;;;;;;6.30;3.03;;;;;;;22.28;48.45;93181.38;5020971;28;20025;-80
2023/08/29 01:57:11;;;;;;;5.43;3.05;;;;;;;22.23;48.58;93188.03;5021357;28;20076;-80
2023/08/29 01:59:38;;;;;;;11.73;3.70;;;;;;;22.19;48.63;93192.69;5022293;28;20030;-80
2023/08/29 02:02:04;;;;;;;6.20;3.05;;;;;;;22.14;49.17;93190.41;5023622;28;20030;-79
2023/08/29 02:04:29;;;;;;;11.75;3.53;;;;;;;22.07;49.18;93192.44;5023338;28;20105;-80
2023/08/29 02:06:55;;;;;;;7.18;3.28;;;;;;;22.08;49.50;93191.25;5022095;28;20025;-80
2023/08/29 02:09:20;;;;;;;4.47;2.63;;;;;;;22.09;49.09;93193.56;5023510;28;20026;-80
2023/08/29 02:11:45;;;;;;;8.25;2.92;;;;;;;22.09;49.23;93188.16;5023334;28;20042;-80
2023/08/29 02:14:11;;;;;;;6.03;2.38;;;;;;;22.09;49.21;93196.28;5022037;28;20025;-80
2023/08/29 02:16:37;;;;;;;8.55;3.28;;;;;;;22.10;49.31;93192.38;5022074;28;20030;-80
2023/08/29 02:19:04;;;;;;;9.48;3.78;;;;;;;22.07;49.88;93195.16;5022261;28;20036;-80
2023/08/29 02:21:29;;;;;;;8.35;3.15;;;;;;;21.97;50.43;93200.25;5021695;28;20034;-81
2023/08/29 02:23:55;;;;;;;4.60;2.53;;;;;;;21.92;50.37;93194.50;5021377;28;20025;-80
2023/08/29 02:26:20;;;;;;;8.82;3.20;;;;;;;21.86;50.29;93201.53;5022924;28;20025;-80
2023/08/29 02:28:46;;;;;;;12.38;3.35;;;;;;;21.76;50.60;93190.38;5023129;28;20088;-80
2023/08/29 02:31:13;;;;;;;7.00;2.92;;;;;;;21.72;50.49;93194.28;5023261;28;20093;-80
2023/08/29 02:33:38;;;;;;;5.90;3.00;;;;;;;21.71;50.24;93192.72;5023085;28;20092;-80
2023/08/29 02:36:05;;;;;;;10.45;3.08;;;;;;;21.72;50.47;93184.22;5023097;28;20041;-80
2023/08/29 02:38:31;;;;;;;9.90;3.40;;;;;;;21.73;50.47;93184.97;5022972;28;20212;-80
2023/08/29 02:40:57;;;;;;;8.57;3.28;;;;;;;21.77;50.64;93186.47;5021812;28;20079;-80
2023/08/29 02:43:23;;;;;;;3.80;2.70;;;;;;;21.77;50.57;93175.63;5022871;28;20304;-80
2023/08/29 02:45:51;;;;;;;4.65;3.08;;;;;;;21.79;50.27;93181.41;5023043;28;20026;-79
2023/08/29 02:48:17;;;;;;;8.10;3.33;;;;;;;21.78;50.34;93182.59;5022818;28;20033;-79
2023/08/29 02:50:42;;;;;;;7.07;3.10;;;;;;;21.73;50.77;93180.31;5022980;28;20212;-79
2023/08/29 02:53:08;;;;;;;6.82;2.83;;;;;;;21.69;51.07;93179.56;5022944;28;20324;-79
2023/08/29 02:55:33;;;;;;;11.45;3.20;;;;;;;21.63;51.06;93181.16;5021870;28;20259;-79
2023/08/29 02:57:59;;;;;;;8.40;3.60;;;;;;;21.52;51.00;93194.81;5022851;28;20029;-79
2023/08/29 03:00:24;;;;;;;6.93;3.58;;;;;;;21.43;50.66;93192.56;5022896;28;20433;-79
2023/08/29 03:02:50;;;;;;;9.73;3.45;;;;;;;21.40;51.50;93198.72;5022638;28;20022;-79
2023/08/29 03:05:15;;;;;;;5.53;3.17;;;;;;;21.36;51.21;93186.38;5021582;28;20316;-79
2023/08/29 03:07:41;;;;;;;12.73;3.22;;;;;;;21.33;51.49;93192.59;5021367;28;20033;-79
2023/08/29 03:10:07;;;;;;;9.95;3.03;;;;;;;21.32;52.09;93191.06;5021642;28;20050;-79
2023/08/29 03:12:32;;;;;;;7.82;3.10;;;;;;;21.23;49.59;93197.69;5022550;28;20049;-79
2023/08/29 03:14:58;;;;;;;5.43;3.08;;;;;;;21.24;50.03;93198.44;5021531;28;20053;-79
2023/08/29 03:17:23;;;;;;;7.60;3.30;;;;;;;21.21;50.46;93205.44;5021397;28;20022;-79
2023/08/29 03:19:49;;;;;;;5.50;3.33;;;;;;;21.25;50.37;93186.47;5022653;28;20335;-81
2023/08/29 03:22:14;;;;;;;7.15;3.35;;;;;;;21.29;50.43;93184.50;5021361;28;20030;-82
2023/08/29 03:24:40;;;;;;;5.60;3.17;;;;;;;21.25;50.69;93186.47;5022633;28;20029;-82
2023/08/29 03:27:06;;;;;;;5.93;2.90;;;;;;;21.19;50.19;93188.03;5022625;28;20268;-82
2023/08/29 03:29:31;;;;;;;8.52;3.35;;;;;;;21.17;50.65;93183.00;5022388;28;20029;-82
2023/08/29 03:31:56;;;;;;;6.47;3.33;;;;;;;21.12;51.36;93179.94;5022360;28;20097;-82
2023/08/29 03:34:22;;;;;;;11.38;3.70;;;;;;;21.12;50.64;93185.38;5023254;28;20072;-82
2023/08/29 03:36:47;;;;;;;5.90;3.33;;;;;;;21.14;50.23;93185.75;5026195;28;20220;-83
2023/08/29 03:39:13;;;;;;;6.35;3.22;;;;;;;21.09;51.21;93180.75;5026357;28;20313;-80
2023/08/29 03:41:38;;;;;;;6.45;4.03;;;;;;;21.14;51.62;93174.91;5025864;28;20084;-80
2023/08/29 03:44:07;;;;;;;18.00;6.82;;;;;;;21.18;52.26;93178.34;5026272;28;20025;-80
2023/08/29 03:46:32;;;;;;;14.10;4.57;;;;;;;21.15;52.06;93184.59;5026139;28;20021;-80
2023/08/29 03:48:58;;;;;;;10.40;3.67;;;;;;;21.10;51.90;93187.69;5025639;28;20029;-80
2023/08/29 03:51:24;;;;;;;10.40;3.83;;;;;;;21.11;51.87;93173.75;5025891;28;20323;-82
2023/08/29 03:53:49;;;;;;;9.20;4.07;;;;;;;21.10;51.89;93171.44;5025902;28;20028;-79
2023/08/29 03:56:15;;;;;;;7.75;3.33;;;;;;;21.07;52.51;93169.53;5025837;28;20017;-80
2023/08/29 03:58:45;;;;;;;9.13;3.80;;;;;;;21.07;52.69;93172.25;5025706;28;20279;-80
2023/08/29 04:01:11;;;;;;;13.55;4.25;;;;;;;21.09;52.47;93164.50;5025626;28;20244;-80
2023/08/29 04:03:37;;;;;;;11.15;3.92;;;;;;;21.10;52.91;93168.72;5025632;28;20030;-78
2023/08/29 04:06:03;;;;;;;10.27;3.90;;;;;;;21.07;53.46;93156.00;5025768;28;20033;-78
2023/08/29 04:08:29;;;;;;;16.30;4.28;;;;;;;21.06;53.25;93166.03;5025540;28;20025;-80
2023/08/29 04:10:54;;;;;;;22.10;4.15;;;;;;;21.06;53.24;93162.56;5025645;28;20097;-80
2023/08/29 04:13:20;;;;;;;10.65;5.45;;;;;;;21.08;53.72;93157.53;5025376;28;20061;-80
2023/08/29 04:15:45;;;;;;;10.02;3.88;;;;;;;21.09;52.72;93169.91;5024144;28;20125;-80
2023/08/29 04:18:11;;;;;;;14.65;4.10;;;;;;;21.02;52.78;93163.38;5025359;28;20045;-81
2023/08/29 04:20:37;;;;;;;9.25;3.88;;;;;;;20.99;53.13;93160.69;5025457;28;20026;-79
2023/08/29 04:23:03;;;;;;;8.68;3.45;;;;;;;21.02;53.14;93160.66;5025379;28;20025;-80
2023/08/29 04:25:30;;;;;;;18.52;3.78;;;;;;;21.08;53.58;93152.09;5025012;28;20024;-78
2023/08/29 04:27:56;;;;;;;9.02;3.60;;;;;;;21.12;54.04;93156.31;5025070;28;20046;-79
2023/08/29 04:30:21;;;;;;;8.38;3.28;;;;;;;21.12;53.44;93155.56;5025048;28;20018;-79
2023/08/29 04:32:48;;;;;;;11.48;4.15;;;;;;;21.07;53.53;93156.75;5024897;28;20089;-79
2023/08/29 04:35:13;;;;;;;10.52;3.28;;;;;;;21.07;53.11;93153.28;5023927;28;20378;-80
2023/08/29 04:37:39;;;;;;;21.35;4.15;;;;;;;21.14;53.11;93161.34;5025047;28;20018;-82
2023/08/29 04:40:10;;;;;;;11.82;3.65;;;;;;;21.29;52.96;93162.03;5025217;28;20040;-81
2023/08/29 04:42:37;;;;;;;7.68;3.22;;;;;;;21.41;53.09;93170.47;5024857;28;20029;-81
2023/08/29 04:45:04;;;;;;;10.40;3.67;;;;;;;21.47;51.34;93167.34;5024089;28;20018;-80
2023/08/29 04:47:32;;;;;;;7.15;3.35;;;;;;;21.48;51.63;93164.25;5024477;28;20036;-80
2023/08/29 04:49:58;;;;;;;9.73;3.28;;;;;;;21.59;52.01;93167.63;5024662;28;20045;-81
2023/08/29 04:52:26;;;;;;;8.88;3.42;;;;;;;21.74;52.08;93178.38;5024725;28;20092;-80
2023/08/29 04:54:51;;;;;;;10.70;3.53;;;;;;;21.80;51.68;93174.06;5023816;28;20045;-80
2023/08/29 04:57:19;;;;;;;7.90;3.42;;;;;;;;;;5022913;28;20028;-80
2023/08/29 04:59:44;;;;;;;11.93;3.30;;;;;;;21.87;51.33;93170.53;5022513;28;20064;-80
2023/08/29 05:02:10;;;;;;;10.43;4.00;;;;;;;22.01;51.56;93162.25;5022776;28;20101;-82
2023/08/29 05:04:35;;;;;;;7.30;3.42;;;;;;;22.07;50.03;93157.16;5021720;28;20060;-81
2023/08/29 05:07:01;;;;;;;12.27;3.55;;;;;;;22.16;50.62;93146.59;5021322;28;20022;-81
2023/08/29 05:09:27;;;;;;;9.60;3.45;;;;;;;22.29;50.52;93155.78;5021491;28;20336;-81
2023/08/29 05:11:53;;;;;;;9.50;4.70;;;;;;;22.43;51.36;93149.44;5022780;28;20038;-82
2023/08/29 05:14:18;;;;;;;6.60;3.55;;;;;;;22.52;50.18;93144.28;5024137;28;20072;-81
2023/08/29 05:16:44;;;;;;;7.18;3.22;;;;;;;22.62;49.38;93140.66;5024193;28;20021;-80
2023/08/29 05:19:09;;;;;;;10.45;3.92;;;;;;;22.70;49.69;93154.16;5024175;28;20010;-80
2023/08/29 05:21:35;;;;;;;5.88;3.28;;;;;;;22.83;49.83;93149.72;5024398;28;20025;-80
2023/08/29 05:24:01;;;;;;;10.32;3.35;;;;;;;22.95;48.63;93140.25;5024037;28;20255;-80
2023/08/29 05:26:26;;;;;;;7.15;3.55;;;;;;;23.07;48.45;93141.69;5024099;28;20025;-81
2023/08/29 05:28:52;;;;;;;10.00;3.75;;;;;;;23.15;48.25;93140.41;5023837;28;20025;-81
2023/08/29 05:31:18;;;;;;;6.72;3.30;;;;;;;23.23;48.76;93139.13;5022728;28;20026;-79
2023/08/29 05:33:43;;;;;;;7.47;3.25;;;;;;;23.23;48.56;93133.69;5023528;28;20093;-80
2023/08/29 05:36:08;;;;;;;16.67;4.00;;;;;;;23.24;48.25;93129.75;5023922;28;20308;-80
2023/08/29 05:38:34;;;;;;;6.75;3.75;;;;;;;23.24;49.08;93132.47;5023969;28;20053;-79
2023/08/29 05:40:59;;;;;;;16.80;4.00;;;;;;;23.25;48.55;93136.75;5023627;28;20022;-79
2023/08/29 05:43:26;;;;;;;22.05;3.70;;;;;;;23.23;47.93;93145.31;5023853;28;20022;-82
2023/08/29 05:45:54;;;;;;;8.63;3.83;;;;;;;23.25;47.77;93142.19;5023715;28;20029;-79
2023/08/29 05:48:19;;;;;;;14.60;3.92;;;;;;;23.30;47.96;93139.00;5023428;28;20038;-78
2023/08/29 05:50:45;;;;;;;14.60;3.80;;;;;;;23.33;47.47;93134.69;5023587;28;20037;-80
2023/08/29 05:53:10;;;;;;;9.43;3.38;;;;;;;23.36;48.46;93137.34;5023466;28;20050;-79
2023/08/29 05:55:35;;;;;;;16.38;3.75;;;;;;;23.28;48.74;93141.34;5022450;28;20058;-79
2023/08/29 05:58:01;;;;;;;12.38;4.07;;;;;;;23.14;48.46;93134.19;5022952;28;20024;-79
2023/08/29 06:00:26;;;;;;;18.90;3.85;;;;;;;23.03;48.31;93141.72;5023374;28;20045;-79
2023/08/29 06:02:52;;;;;;;10.18;3.58;;;;;;;23.10;48.80;93136.19;5023437;28;20021;-78
2023/08/29 06:05:18;;;;;;;12.93;3.88;;;;;;;23.11;48.28;93142.41;5023203;28;20021;-78
2023/08/29 06:07:44;;;;;;;8.40;3.70;;;;;;;23.22;48.55;93143.78;5023169;28;20026;-78
2023/08/29 06:10:09;;;;;;;8.20;4.03;;;;;;;23.33;47.68;93148.28;5023285;28;20100;-79
2023/08/29 06:12:35;;;;;;;10.60;3.47;;;;;;;23.44;48.70;93155.09;5023209;28;20320;-79
2023/08/29 06:15:00;;;;;;;12.73;3.35;;;;;;;23.53;47.70;93154.59;5023053;28;20216;-79
2023/08/29 06:17:26;;;;;;;18.42;4.05;;;;;;;23.60;48.07;93145.53;5022077;28;20029;-79
2023/08/29 06:19:51;;;;;;;10.88;3.20;;;;;;;23.70;47.20;93144.59;5023156;28;20255;-79
2023/08/29 06:22:17;;;;;;;17.23;4.05;;;;;;;23.85;46.91;93150.59;5023032;28;20197;-81
2023/08/29 06:24:42;;;;;;;5.60;3.00;;;;;;;23.92;45.89;93157.88;5023070;28;20032;-80
2023/08/29 06:27:07;;;;;;;9.98;3.28;;;;;;;24.02;46.03;93154.22;5022859;28;20018;-80
2023/08/29 06:29:33;;;;;;;11.52;3.67;;;;;;;24.10;45.45;93152.91;5023138;28;20051;-80
2023/08/29 06:31:58;;;;;;;8.25;3.70;;;;;;;24.22;46.27;93159.66;5023214;28;20083;-79
2023/08/29 06:34:24;;;;;;;21.35;3.65;;;;;;;24.36;45.21;93155.91;5023136;28;20216;-80
2023/08/29 06:36:49;;;;;;;15.73;3.92;;;;;;;24.52;44.88;93157.97;5023004;28;20022;-78
2023/08/29 06:39:15;;;;;;;11.50;3.33;;;;;;;24.70;45.23;93149.47;5022866;28;20018;-78
2023/08/29 06:41:41;;;;;;;17.48;3.40;;;;;;;24.89;44.47;93154.09;5021786;28;20041;-78
2023/08/29 06:44:07;;;;;;;7.20;3.22;;;;;;;25.03;43.30;93142.94;5021802;28;20368;-78
2023/08/29 06:46:33;;;;;;;13.77;3.53;;;;;;;25.19;43.11;93153.06;5022978;28;20025;-78
2023/08/29 06:48:59;;;;;;;9.07;3.85;;;;;;;25.32;43.30;93153.22;5022966;28;20044;-78
2023/08/29 06:51:24;;;;;;;21.67;3.88;;;;;;;25.49;44.79;93147.78;5022716;28;20048;-78
2023/08/29 06:53:50;;;;;;;11.88;3.92;;;;;;;25.60;42.56;93145.56;5021742;28;20026;-78
2023/08/29 06:56:15;;;;;;;12.90;3.85;;;;;;;25.73;43.25;93145.66;5021758;28;20053;-78
2023/08/29 06:58:40;;;;;;;16.73;4.38;;;;;;;25.89;42.52;93148.38;5021725;28;20204;-78
2023/08/29 07:01:06;;;;;;;9.40;3.67;;;;;;;25.98;41.29;93143.09;5022758;28;20030;-78
2023/08/29 07:03:31;;;;;;;7.40;4.00;;;;;;;26.09;41.75;93148.28;5021907;28;20026;-78
2023/08/29 07:05:57;;;;;;;11.57;4.00;;;;;;;26.16;41.38;93150.06;5021599;28;20112;-78
2023/08/29 07:08:23;;;;;;;8.35;3.47;;;;;;;26.23;41.71;93147.91;5023145;28;20362;-78
2023/08/29 07:10:49;;;;;;;9.98;3.75;;;;;;;26.27;40.06;93156.00;5026747;28;20056;-85
2023/08/29 07:13:14;;;;;;;11.90;4.03;;;;;;;26.35;41.52;93142.94;5026120;28;20050;-83
2023/08/29 07:15:39;;;;;;;7.38;3.95;;;;;;;26.44;40.90;93156.75;5025682;28;20022;-81
2023/08/29 07:18:05;;;;;;;8.02;3.50;;;;;;;26.48;39.81;93162.91;5026483;28;20085;-83
2023/08/29 07:20:31;;;;;;;9.18;3.33;;;;;;;26.53;39.38;93167.81;5025133;28;20033;-83
2023/08/29 07:22:57;;;;;;;8.90;3.65;;;;;;;26.54;39.41;93163.91;5025119;28;20041;-83
2023/08/29 07:25:39;;;;;;;7.28;2.97;;;;;;;26.40;39.10;93150.63;5025865;28;20021;-86
2023/08/29 07:28:08;;;;;;;;;;;;;;;26.42;39.02;93162.66;5025652;28;20755;-83
2023/08/29 07:30:34;;;;;;;7.78;3.58;;;;;;;26.41;39.99;93160.34;5026067;28;20243;-83
2023/08/29 07:32:59;;;;;;;12.95;3.10;;;;;;;26.50;39.67;93163.22;5024555;28;20037;-83
2023/08/29 07:35:25;;;;;;;10.48;3.58;;;;;;;26.59;39.38;93171.59;5024776;28;20549;-83
2023/08/29 07:37:51;;;;;;;11.57;3.67;;;;;;;26.73;39.34;93161.47;5024169;28;20037;-83
2023/08/29 07:40:17;;;;;;;7.78;3.58;;;;;;;26.76;39.42;93168.78;5024160;28;20026;-83
2023/08/29 07:42:42;;;;;;;5.55;3.00;;;;;;;26.82;39.06;93170.56;5023442;28;20022;-84
2023/08/29 07:45:08;;;;;;;14.20;2.90;;;;;;;26.88;38.62;93157.13;5024148;28;20030;-83
2023/08/29 07:47:34;;;;;;;8.52;3.28;;;;;;;26.89;38.22;93158.66;5024448;28;20029;-83
2023/08/29 07:50:00;;;;;;;14.35;3.33;;;;;;;26.93;37.99;93164.03;5024596;28;20085;-83
2023/08/29 07:52:26;;;;;;;10.45;3.63;;;;;;;26.95;38.32;93154.19;5025709;28;20089;-83
2023/08/29 07:54:51;;;;;;;10.55;3.28;;;;;;;27.02;38.16;93155.94;5025676;28;20022;-83
2023/08/29 07:57:17;;;;;;;8.55;3.15;;;;;;;27.11;37.85;93163.50;5025754;28;20064;-83
2023/08/29 07:59:42;;;;;;;12.05;3.92;;;;;;;27.19;37.45;93153.88;5025634;28;20316;-83
2023/08/29 08:02:08;;;;;;;12.63;3.00;;;;;;;27.29;37.86;93158.28;5025500;28;20022;-83
2023/08/29 08:04:33;;;;;;;6.72;3.53;;;;;;;27.35;36.72;93159.28;5025761;28;20117;-85
2023/08/29 08:06:58;;;;;;;13.05;3.53;;;;;;;27.28;37.03;93159.50;5025365;28;20362;-82
2023/08/29 08:09:24;;;;;;;9.77;3.30;;;;;;;27.33;38.05;93156.22;5025046;28;20049;-83
2023/08/29 08:11:49;;;;;;;19.17;4.72;;;;;;;27.42;37.95;93145.38;5023972;28;20053;-83
2023/08/29 08:14:17;;;;;;;11.02;3.00;;;;;;;27.54;37.38;93145.81;5025224;28;20304;-83
2023/08/29 08:16:43;;;;;;;13.20;4.25;;;;;;;27.59;37.46;93154.25;5025362;28;20244;-83
2023/08/29 08:19:09;;;;;;;17.17;4.03;;;;;;;27.64;37.44;93139.25;5023878;28;20014;-83
2023/08/29 08:21:35;;;;;;;11.60;4.00;;;;;;;27.60;37.18;93139.38;5025297;28;20273;-83
2023/08/29 08:24:01;;;;;;;15.38;3.60;;;;;;;27.56;36.96;93140.66;5024077;28;20025;-84
2023/08/29 08:26:27;;;;;;;12.82;3.45;;;;;;;27.51;36.66;93143.97;5024076;28;20022;-82
2023/08/29 08:28:54;;;;;;;6.07;3.78;;;;;;;27.53;36.87;93127.88;5025085;28;20323;-84
2023/08/29 08:31:20;;;;;;;10.43;3.83;;;;;;;27.68;36.57;93130.91;5024991;28;20115;-83
2023/08/29 08:33:46;;;;;;;7.20;3.08;;;;;;;27.64;36.90;93131.03;5023744;28;20097;-83
2023/08/29 08:36:11;;;;;;;12.75;4.03;;;;;;;27.71;36.49;93125.31;5023734;28;20064;-83
2023/08/29 08:38:37;;;;;;;6.68;3.72;;;;;;;27.89;36.58;93110.34;5023711;28;20018;-83
2023/08/29 08:41:03;;;;;;;11.35;3.90;;;;;;;28.05;36.66;93118.38;5025202;28;20040;-83
2023/08/29 08:43:31;;;;;;;8.90;3.83;;;;;;;28.19;36.35;93123.38;5023637;28;20026;-84
2023/08/29 08:45:57;;;;;;;13.02;3.95;;;;;;;28.31;35.07;93119.06;5024826;28;20149;-83
2023/08/29 08:48:24;;;;;;;8.43;4.13;;;;;;;28.33;35.29;93126.81;5023514;28;20041;-83
2023/08/29 08:50:50;;;;;;;16.55;3.67;;;;;;;28.42;35.40;93122.19;5024636;28;20220;-83
2023/08/29 08:53:18;;;;;;;8.77;4.40;;;;;;;28.51;34.46;93126.22;5024519;28;20017;-84
2023/08/29 08:55:44;;;;;;;10.98;4.25;;;;;;;28.55;35.07;93122.16;5024585;28;20017;-84
2023/08/29 08:58:09;;;;;;;13.73;4.45;;;;;;;28.63;34.82;93124.66;5024626;28;20017;-84
2023/08/29 09:00:35;;;;;;;14.05;3.80;;;;;;;28.58;34.92;93118.53;5023478;28;20063;-84
2023/08/29 09:03:00;;;;;;;14.88;5.70;;;;;;;28.70;34.03;93118.88;5023456;28;20318;-84
2023/08/29 09:05:26;;;;;;;9.25;3.53;;;;;;;28.79;33.89;93116.22;5024428;28;20034;-84
2023/08/29 09:07:51;;;;;;;9.93;4.22;;;;;;;28.78;34.06;93122.91;5024371;28;20080;-84
2023/08/29 09:10:17;;;;;;;6.50;4.07;;;;;;;28.90;34.72;93119.34;5022979;28;20034;-84
2023/08/29 09:12:50;;;;;;;10.27;4.13;;;;;;;29.01;33.25;93111.47;5024174;28;20050;-84
2023/08/29 09:15:19;;;;;;;14.00;4.22;;;;;;;29.09;33.56;93113.94;5024398;28;20089;-84
2023/08/29 09:17:49;;;;;;;11.48;3.97;;;;;;;29.12;33.34;93102.09;5024218;28;20201;-84
2023/08/29 09:20:15;;;;;;;13.07;4.18;;;;;;;29.15;33.82;93106.69;5024256;28;20305;-84
2023/08/29 09:22:45;;;;;;;7.20;4.00;;;;;;;29.40;34.44;93106.47;5024300;28;20045;-84
2023/08/29 09:25:11;;;;;;;12.30;4.50;;;;;;;29.54;33.74;93104.38;5024227;28;20025;-84
2023/08/29 09:27:41;;;;;;;13.82;4.32;;;;;;;29.70;33.41;93106.88;5023930;28;20049;-85
2023/08/29 09:30:13;;;;;;;16.08;4.40;;;;;;;29.77;33.63;93106.59;5024167;28;20299;-84
2023/08/29 09:32:50;;;;;;;9.82;4.35;;;;;;;29.80;33.10;93099.44;5023377;28;20029;-84
2023/08/29 09:35:19;;;;;;;11.85;4.10;;;;;;;29.80;33.00;93119.44;5023612;28;20021;-84
2023/08/29 09:37:53;;;;;;;7.00;4.00;;;;;;;29.78;32.02;93119.13;5023787;28;20097;-84
2023/08/29 09:40:20;;;;;;;11.52;4.35;;;;;;;29.76;32.47;93116.06;5022676;28;20018;-85
2023/08/29 09:42:59;;;;;;;12.23;4.32;;;;;;;29.89;32.17;93115.19;5022427;28;20105;-84
2023/08/29 09:45:28;;;;;;;9.35;3.67;;;;;;;29.97;32.16;93119.16;5023756;28;20024;-84
2023/08/29 09:47:54;;;;;;;8.85;3.75;;;;;;;29.95;32.18;93116.09;5023681;28;20025;-84
2023/08/29 09:50:23;;;;;;;13.23;5.10;;;;;;;29.98;32.91;93110.47;5023636;28;20089;-84
2023/08/29 09:52:51;;;;;;;13.05;4.78;;;;;;;30.01;31.89;93108.78;5022379;28;20291;-84
2023/08/29 09:55:19;;;;;;;14.70;4.38;;;;;;;30.04;32.46;93112.59;5022457;28;20213;-84
2023/08/29 09:57:50;;;;;;;11.05;4.00;;;;;;;30.01;32.55;93114.28;5022175;28;20014;-84
2023/08/29 10:00:17;;;;;;;13.73;4.28;;;;;;;29.92;33.34;93106.00;5023321;28;20049;-84
2023/08/29 10:02:46;;;;;;;11.20;4.30;;;;;;;29.88;33.40;93111.66;5022452;28;20032;-85
2023/08/29 10:05:14;;;;;;;8.80;3.85;;;;;;;29.88;33.56;93106.19;5022282;28;20221;-85
2023/08/29 10:07:46;;;;;;;13.50;4.25;;;;;;;29.90;32.45;93111.97;5023323;28;20092;-84
2023/08/29 10:10:12;;;;;;;14.38;3.33;;;;;;;29.94;32.60;93104.34;5023236;28;20028;-84
2023/08/29 10:12:39;;;;;;;8.68;4.30;;;;;;;29.98;32.98;93099.47;5022966;28;20359;-84
2023/08/29 10:15:06;;;;;;;15.32;4.00;;;;;;;30.08;32.86;93091.97;5023415;28;20022;-84
2023/08/29 10:17:36;;;;;;;8.00;3.40;;;;;;;30.20;32.82;93085.59;5022168;28;20021;-85
2023/08/29 10:20:09;;;;;;;10.00;3.55;;;;;;;30.42;32.83;93092.94;5023511;28;20044;-85
2023/08/29 10:22:37;;;;;;;11.02;3.60;;;;;;;30.56;32.58;93092.31;5022216;28;20022;-84
2023/08/29 10:25:06;;;;;;;11.23;3.45;;;;;;;30.71;32.20;93083.44;5023252;28;20312;-84
2023/08/29 10:27:32;;;;;;;9.93;3.88;;;;;;;30.80;32.16;93089.69;5023324;28;20018;-85
2023/08/29 10:29:58;;;;;;;8.25;4.03;;;;;;;30.88;31.57;93076.41;5022148;28;20045;-84
2023/08/29 10:32:25;;;;;;;4.93;3.47;;;;;;;30.95;31.49;93083.56;5021889;28;20029;-85
2023/08/29 10:34:51;;;;;;;12.68;4.40;;;;;;;30.96;31.92;93076.84;5022941;28;20328;-84
2023/08/29 10:37:18;;;;;;;10.35;4.20;;;;;;;30.96;31.74;93074.09;5023048;28;20049;-85
2023/08/29 10:39:44;;;;;;;6.47;3.60;;;;;;;30.98;30.98;93082.66;5023066;28;20308;-85
2023/08/29 10:42:15;;;;;;;8.20;4.70;;;;;;;30.94;31.67;93080.06;5022876;28;20064;-84
2023/08/29 10:44:42;;;;;;;;;;;;;;;30.85;31.76;93077.28;5022597;28;20320;-85
2023/08/29 10:47:23;;;;;;;14.55;4.55;;;;;;;30.67;31.30;93071.81;5023034;28;19910;-84
2023/08/29 10:50:00;;;;;;;11.73;4.13;;;;;;;30.58;32.88;93075.38;5022788;28;20034;-85
2023/08/29 10:52:41;;;;;;;8.07;4.25;;;;;;;30.62;32.65;93081.47;5022882;28;20385;-84
2023/08/29 10:55:30;;;;;;;9.23;5.07;;;;;;;30.63;33.26;93082.22;5021782;28;20026;-84
2023/08/29 10:57:58;;;;;;;16.10;4.22;;;;;;;30.60;33.43;93081.91;5022901;28;20029;-84
2023/08/29 11:00:40;;;;;;;8.85;4.15;;;;;;;30.65;33.91;93082.53;5023017;28;20044;-85
2023/08/29 11:03:06;;;;;;;10.80;4.63;;;;;;;30.62;33.33;93067.72;5022961;28;20290;-85
2023/08/29 11:05:31;;;;;;;9.70;4.03;;;;;;;30.64;33.28;93067.25;5022972;28;20053;-85
2023/08/29 11:08:29;;;;;;;8.05;4.38;;;;;;;30.66;33.13;93062.06;5022722;28;20089;-85
2023/08/29 11:11:19;;;;;;;8.05;3.40;;;;;;;30.63;33.13;93058.22;5021679;28;20328;-85
2023/08/29 11:13:55;;;;;;;9.32;3.60;;;;;;;30.64;33.26;93053.50;5022776;28;20034;-84
2023/08/29 11:16:21;;;;;;;14.38;4.05;;;;;;;30.65;33.08;93044.78;5022757;28;20026;-84
2023/08/29 11:18:47;;;;;;;13.00;4.68;;;;;;;30.64;33.02;93054.28;5022646;28;20022;-84
2023/08/29 11:21:15;;;;;;;10.60;3.70;;;;;;;30.67;33.04;93058.06;5022707;28;20026;-84
2023/08/29 11:23:43;;;;;;;8.68;3.70;;;;;;;30.66;33.50;93062.06;5022558;28;20332;-84
2023/08/29 11:26:09;;;;;;;8.00;3.00;;;;;;;30.60;33.24;93054.41;5022232;28;20132;-84
2023/08/29 11:28:42;;;;;;;7.32;3.65;;;;;;;30.63;33.05;93044.47;5021185;28;20042;-84
2023/08/29 11:31:08;;;;;;;15.63;3.92;;;;;;;30.53;33.53;93043.75;5022495;28;20044;-84
2023/08/29 11:33:36;;;;;;;9.10;3.88;;;;;;;30.52;33.59;93050.47;5021496;28;20033;-84